sensor_id;sensor_type;location;lat;lon;timestamp;temperature;humidity
35127;DHT22;21300;52.006;5.798;2023-07-29T00:01:20;20.20;92.00
35127;DHT22;21300;52.006;5.798;2023-07-29T00:03:46;20.20;92.00
35127;DHT22;21300;52.006;5.798;2023-07-29T00:06:11;20.10;92.00
35127;DHT22;21300;52.006;5.798;2023-07-29T00:08:37;20.20;92.00
35127;DHT22;21300;52.006;5.798;2023-07-29T00:11:03;20.10;92.00
35127;DHT22;21300;52.006;5.798;2023-07-29T00:13:28;20.10;92.00
35127;DHT22;21300;52.006;5.798;2023-07-29T00:15:54;20.10;92.00
35127;DHT22;21300;52.006;5.798;2023-07-29T00:18:21;20.10;92.00
35127;DHT22;21300;52.006;5.798;2023-07-29T00:20:47;20.00;92.00
35127;DHT22;21300;52.006;5.798;2023-07-29T00:23:12;20.00;91.90
35127;DHT22;21300;52.006;5.798;2023-07-29T00:25:38;20.00;91.90
35127;DHT22;21300;52.006;5.798;2023-07-29T00:28:04;20.00;91.90
35127;DHT22;21300;52.006;5.798;2023-07-29T00:30:29;20.00;91.80
35127;DHT22;21300;52.006;5.798;2023-07-29T00:32:55;20.00;91.80
35127;DHT22;21300;52.006;5.798;2023-07-29T00:35:20;19.90;91.80
35127;DHT22;21300;52.006;5.798;2023-07-29T00:37:46;19.90;91.80
35127;DHT22;21300;52.006;5.798;2023-07-29T00:40:19;19.90;91.80
35127;DHT22;21300;52.006;5.798;2023-07-29T00:42:46;19.90;91.80
35127;DHT22;21300;52.006;5.798;2023-07-29T00:45:11;19.90;91.90
35127;DHT22;21300;52.006;5.798;2023-07-29T00:47:38;19.80;91.80
35127;DHT22;21300;52.006;5.798;2023-07-29T00:50:04;19.80;91.90
35127;DHT22;21300;52.006;5.798;2023-07-29T00:52:30;19.80;91.90
35127;DHT22;21300;52.006;5.798;2023-07-29T00:54:55;19.80;92.00
35127;DHT22;21300;52.006;5.798;2023-07-29T00:57:21;19.70;92.00
35127;DHT22;21300;52.006;5.798;2023-07-29T00:59:48;19.70;92.00
35127;DHT22;21300;52.006;5.798;2023-07-29T01:02:14;19.70;92.00
35127;DHT22;21300;52.006;5.798;2023-07-29T01:04:40;19.70;92.10
35127;DHT22;21300;52.006;5.798;2023-07-29T01:13:12;19.70;92.10
35127;DHT22;21300;52.006;5.798;2023-07-29T01:15:54;19.60;92.20
35127;DHT22;21300;52.006;5.798;2023-07-29T01:18:28;19.60;92.20
35127;DHT22;21300;52.006;5.798;2023-07-29T01:20:59;19.60;92.20
35127;DHT22;21300;52.006;5.798;2023-07-29T01:23:31;19.60;92.20
35127;DHT22;21300;52.006;5.798;2023-07-29T01:25:57;19.50;92.20
35127;DHT22;21300;52.006;5.798;2023-07-29T01:28:23;19.50;92.20
35127;DHT22;21300;52.006;5.798;2023-07-29T01:30:52;19.50;92.20
35127;DHT22;21300;52.006;5.798;2023-07-29T01:33:26;19.50;92.20
35127;DHT22;21300;52.006;5.798;2023-07-29T01:36:01;19.40;92.20
35127;DHT22;21300;52.006;5.798;2023-07-29T01:38:33;19.40;92.20
35127;DHT22;21300;52.006;5.798;2023-07-29T01:41:01;19.40;92.20
35127;DHT22;21300;52.006;5.798;2023-07-29T01:43:31;19.40;92.20
35127;DHT22;21300;52.006;5.798;2023-07-29T01:45:57;19.40;92.20
35127;DHT22;21300;52.006;5.798;2023-07-29T01:48:23;19.40;92.30
35127;DHT22;21300;52.006;5.798;2023-07-29T01:50:49;19.40;92.30
35127;DHT22;21300;52.006;5.798;2023-07-29T01:53:15;19.30;92.30
35127;DHT22;21300;52.006;5.798;2023-07-29T01:55:41;19.30;92.30
35127;DHT22;21300;52.006;5.798;2023-07-29T01:58:06;19.40;92.30
35127;DHT22;21300;52.006;5.798;2023-07-29T02:00:32;19.30;92.30
35127;DHT22;21300;52.006;5.798;2023-07-29T02:02:58;19.30;92.30
35127;DHT22;21300;52.006;5.798;2023-07-29T02:05:23;19.30;92.30
35127;DHT22;21300;52.006;5.798;2023-07-29T02:07:49;19.30;92.40
35127;DHT22;21300;52.006;5.798;2023-07-29T02:10:15;19.30;92.30
35127;DHT22;21300;52.006;5.798;2023-07-29T02:12:41;19.30;92.40
35127;DHT22;21300;52.006;5.798;2023-07-29T02:15:07;19.30;92.40
35127;DHT22;21300;52.006;5.798;2023-07-29T02:17:33;19.30;92.40
35127;DHT22;21300;52.006;5.798;2023-07-29T02:19:58;19.20;92.40
35127;DHT22;21300;52.006;5.798;2023-07-29T02:22:24;19.20;92.40
35127;DHT22;21300;52.006;5.798;2023-07-29T02:24:50;19.20;92.40
35127;DHT22;21300;52.006;5.798;2023-07-29T02:27:15;19.20;92.50
35127;DHT22;21300;52.006;5.798;2023-07-29T02:29:41;19.20;92.40
35127;DHT22;21300;52.006;5.798;2023-07-29T02:32:06;19.20;92.40
35127;DHT22;21300;52.006;5.798;2023-07-29T02:34:32;19.20;92.40
35127;DHT22;21300;52.006;5.798;2023-07-29T02:36:58;19.10;92.40
35127;DHT22;21300;52.006;5.798;2023-07-29T02:39:23;19.10;92.50
35127;DHT22;21300;52.006;5.798;2023-07-29T02:41:49;19.10;92.50
35127;DHT22;21300;52.006;5.798;2023-07-29T02:44:15;19.10;92.50
35127;DHT22;21300;52.006;5.798;2023-07-29T02:46:41;19.10;92.50
35127;DHT22;21300;52.006;5.798;2023-07-29T02:49:07;19.10;92.50
35127;DHT22;21300;52.006;5.798;2023-07-29T02:51:33;19.10;92.50
35127;DHT22;21300;52.006;5.798;2023-07-29T02:53:58;19.10;92.60
35127;DHT22;21300;52.006;5.798;2023-07-29T02:56:24;19.10;92.50
35127;DHT22;21300;52.006;5.798;2023-07-29T02:58:49;19.10;92.60
35127;DHT22;21300;52.006;5.798;2023-07-29T03:01:16;19.10;92.60
35127;DHT22;21300;52.006;5.798;2023-07-29T03:03:42;19.10;92.60
35127;DHT22;21300;52.006;5.798;2023-07-29T03:06:10;19.10;92.60
35127;DHT22;21300;52.006;5.798;2023-07-29T03:08:36;19.10;92.60
35127;DHT22;21300;52.006;5.798;2023-07-29T03:11:10;19.00;92.60
35127;DHT22;21300;52.006;5.798;2023-07-29T03:13:36;19.00;92.60
35127;DHT22;21300;52.006;5.798;2023-07-29T03:16:08;19.00;92.60
35127;DHT22;21300;52.006;5.798;2023-07-29T03:18:35;19.00;92.60
35127;DHT22;21300;52.006;5.798;2023-07-29T03:21:01;19.00;92.70
35127;DHT22;21300;52.006;5.798;2023-07-29T03:23:28;19.00;92.70
35127;DHT22;21300;52.006;5.798;2023-07-29T03:25:58;19.00;92.70
35127;DHT22;21300;52.006;5.798;2023-07-29T03:28:26;19.00;92.70
35127;DHT22;21300;52.006;5.798;2023-07-29T03:30:53;19.00;92.70
35127;DHT22;21300;52.006;5.798;2023-07-29T03:33:18;19.00;92.70
35127;DHT22;21300;52.006;5.798;2023-07-29T03:35:44;19.00;92.70
35127;DHT22;21300;52.006;5.798;2023-07-29T03:38:10;18.90;92.70
35127;DHT22;21300;52.006;5.798;2023-07-29T03:40:37;18.90;92.70
35127;DHT22;21300;52.006;5.798;2023-07-29T03:43:03;18.90;92.70
35127;DHT22;21300;52.006;5.798;2023-07-29T03:45:28;18.90;92.70
35127;DHT22;21300;52.006;5.798;2023-07-29T03:47:54;18.90;92.80
35127;DHT22;21300;52.006;5.798;2023-07-29T03:50:19;18.90;92.70
35127;DHT22;21300;52.006;5.798;2023-07-29T03:52:45;18.90;92.80
35127;DHT22;21300;52.006;5.798;2023-07-29T03:55:10;18.90;92.80
35127;DHT22;21300;52.006;5.798;2023-07-29T03:57:36;18.90;92.80
35127;DHT22;21300;52.006;5.798;2023-07-29T04:00:02;18.90;92.80
35127;DHT22;21300;52.006;5.798;2023-07-29T04:02:28;18.90;92.80
35127;DHT22;21300;52.006;5.798;2023-07-29T04:04:54;18.90;92.80
35127;DHT22;21300;52.006;5.798;2023-07-29T04:07:19;18.90;92.80
35127;DHT22;21300;52.006;5.798;2023-07-29T04:09:45;18.90;92.80
35127;DHT22;21300;52.006;5.798;2023-07-29T04:12:11;18.80;92.80
35127;DHT22;21300;52.006;5.798;2023-07-29T04:14:36;18.80;92.80
35127;DHT22;21300;52.006;5.798;2023-07-29T04:17:02;18.80;92.90
35127;DHT22;21300;52.006;5.798;2023-07-29T04:19:27;18.80;92.90
35127;DHT22;21300;52.006;5.798;2023-07-29T04:21:53;18.80;92.90
35127;DHT22;21300;52.006;5.798;2023-07-29T04:24:18;18.80;92.90
35127;DHT22;21300;52.006;5.798;2023-07-29T04:26:45;18.80;92.90
35127;DHT22;21300;52.006;5.798;2023-07-29T04:29:11;18.80;92.90
35127;DHT22;21300;52.006;5.798;2023-07-29T04:31:37;18.80;92.90
35127;DHT22;21300;52.006;5.798;2023-07-29T04:34:04;18.80;92.90
35127;DHT22;21300;52.006;5.798;2023-07-29T04:36:30;18.70;93.20
35127;DHT22;21300;52.006;5.798;2023-07-29T04:38:55;18.80;92.90
35127;DHT22;21300;52.006;5.798;2023-07-29T04:41:21;18.70;92.90
35127;DHT22;21300;52.006;5.798;2023-07-29T04:43:46;18.70;92.90
35127;DHT22;21300;52.006;5.798;2023-07-29T04:46:12;18.70;92.90
35127;DHT22;21300;52.006;5.798;2023-07-29T04:48:37;18.70;92.90
35127;DHT22;21300;52.006;5.798;2023-07-29T04:51:03;18.70;92.90
35127;DHT22;21300;52.006;5.798;2023-07-29T04:53:29;18.70;92.90
35127;DHT22;21300;52.006;5.798;2023-07-29T04:55:54;18.70;92.90
35127;DHT22;21300;52.006;5.798;2023-07-29T04:58:20;18.70;92.90
35127;DHT22;21300;52.006;5.798;2023-07-29T05:00:49;18.70;92.90
35127;DHT22;21300;52.006;5.798;2023-07-29T05:03:14;18.70;92.90
35127;DHT22;21300;52.006;5.798;2023-07-29T05:05:40;18.70;92.90
35127;DHT22;21300;52.006;5.798;2023-07-29T05:08:05;18.70;92.90
35127;DHT22;21300;52.006;5.798;2023-07-29T05:10:31;18.60;92.90
35127;DHT22;21300;52.006;5.798;2023-07-29T05:12:56;18.70;92.90
35127;DHT22;21300;52.006;5.798;2023-07-29T05:15:22;18.60;92.90
35127;DHT22;21300;52.006;5.798;2023-07-29T05:17:47;18.60;92.90
35127;DHT22;21300;52.006;5.798;2023-07-29T05:20:13;18.60;92.90
35127;DHT22;21300;52.006;5.798;2023-07-29T05:22:39;18.60;92.90
35127;DHT22;21300;52.006;5.798;2023-07-29T05:25:05;18.60;93.00
35127;DHT22;21300;52.006;5.798;2023-07-29T05:27:30;18.60;92.90
35127;DHT22;21300;52.006;5.798;2023-07-29T05:29:56;18.60;92.90
35127;DHT22;21300;52.006;5.798;2023-07-29T05:32:22;18.60;92.90
35127;DHT22;21300;52.006;5.798;2023-07-29T05:34:47;18.60;92.90
35127;DHT22;21300;52.006;5.798;2023-07-29T05:37:13;18.60;92.90
35127;DHT22;21300;52.006;5.798;2023-07-29T05:39:38;18.60;92.90
35127;DHT22;21300;52.006;5.798;2023-07-29T05:42:04;18.60;92.90
35127;DHT22;21300;52.006;5.798;2023-07-29T05:44:30;18.60;92.90
35127;DHT22;21300;52.006;5.798;2023-07-29T05:46:56;18.60;92.90
35127;DHT22;21300;52.006;5.798;2023-07-29T05:49:22;18.60;92.90
35127;DHT22;21300;52.006;5.798;2023-07-29T05:51:48;18.60;92.90
35127;DHT22;21300;52.006;5.798;2023-07-29T05:54:13;18.60;92.90
35127;DHT22;21300;52.006;5.798;2023-07-29T05:56:39;18.60;92.90
35127;DHT22;21300;52.006;5.798;2023-07-29T05:59:04;18.60;92.90
35127;DHT22;21300;52.006;5.798;2023-07-29T06:01:30;18.60;92.90
35127;DHT22;21300;52.006;5.798;2023-07-29T06:03:55;18.60;92.90
35127;DHT22;21300;52.006;5.798;2023-07-29T06:06:21;18.60;92.90
35127;DHT22;21300;52.006;5.798;2023-07-29T06:08:49;18.60;92.90
35127;DHT22;21300;52.006;5.798;2023-07-29T06:11:15;18.60;92.90
35127;DHT22;21300;52.006;5.798;2023-07-29T06:13:40;18.60;92.90
35127;DHT22;21300;52.006;5.798;2023-07-29T06:16:06;18.60;92.90
35127;DHT22;21300;52.006;5.798;2023-07-29T06:18:31;18.60;92.90
35127;DHT22;21300;52.006;5.798;2023-07-29T06:20:57;18.60;92.90
35127;DHT22;21300;52.006;5.798;2023-07-29T06:23:23;18.60;92.90
35127;DHT22;21300;52.006;5.798;2023-07-29T06:25:48;18.60;92.90
35127;DHT22;21300;52.006;5.798;2023-07-29T06:28:14;18.60;92.80
35127;DHT22;21300;52.006;5.798;2023-07-29T06:30:39;18.60;92.80
35127;DHT22;21300;52.006;5.798;2023-07-29T06:33:06;18.60;92.80
35127;DHT22;21300;52.006;5.798;2023-07-29T06:35:31;18.70;92.80
35127;DHT22;21300;52.006;5.798;2023-07-29T06:37:57;18.70;92.80
35127;DHT22;21300;52.006;5.798;2023-07-29T06:40:22;18.70;92.70
35127;DHT22;21300;52.006;5.798;2023-07-29T06:42:48;18.70;92.70
35127;DHT22;21300;52.006;5.798;2023-07-29T06:45:14;18.70;92.70
35127;DHT22;21300;52.006;5.798;2023-07-29T06:47:40;18.70;92.70
35127;DHT22;21300;52.006;5.798;2023-07-29T06:50:06;18.70;92.60
35127;DHT22;21300;52.006;5.798;2023-07-29T06:52:32;18.70;92.60
35127;DHT22;21300;52.006;5.798;2023-07-29T06:54:58;18.80;92.60
35127;DHT22;21300;52.006;5.798;2023-07-29T06:57:23;18.80;92.60
35127;DHT22;21300;52.006;5.798;2023-07-29T06:59:49;18.80;92.60
35127;DHT22;21300;52.006;5.798;2023-07-29T07:02:14;18.80;92.60
35127;DHT22;21300;52.006;5.798;2023-07-29T07:04:40;18.90;92.50
35127;DHT22;21300;52.006;5.798;2023-07-29T07:07:06;18.90;92.50
35127;DHT22;21300;52.006;5.798;2023-07-29T07:09:31;18.90;92.50
35127;DHT22;21300;52.006;5.798;2023-07-29T07:11:57;18.90;92.40
35127;DHT22;21300;52.006;5.798;2023-07-29T07:14:22;19.00;92.40
35127;DHT22;21300;52.006;5.798;2023-07-29T07:16:48;19.00;92.40
35127;DHT22;21300;52.006;5.798;2023-07-29T07:19:13;19.00;92.40
35127;DHT22;21300;52.006;5.798;2023-07-29T07:21:39;19.00;92.40
35127;DHT22;21300;52.006;5.798;2023-07-29T07:24:05;19.10;92.50
35127;DHT22;21300;52.006;5.798;2023-07-29T07:26:30;19.10;92.40
35127;DHT22;21300;52.006;5.798;2023-07-29T07:28:56;19.10;92.40
35127;DHT22;21300;52.006;5.798;2023-07-29T07:31:22;19.20;92.40
35127;DHT22;21300;52.006;5.798;2023-07-29T07:33:48;19.20;92.40
35127;DHT22;21300;52.006;5.798;2023-07-29T07:36:14;19.30;92.30
35127;DHT22;21300;52.006;5.798;2023-07-29T07:38:41;19.30;92.40
35127;DHT22;21300;52.006;5.798;2023-07-29T07:41:06;19.30;92.30
35127;DHT22;21300;52.006;5.798;2023-07-29T07:43:32;19.30;92.30
35127;DHT22;21300;52.006;5.798;2023-07-29T07:45:58;19.30;92.30
35127;DHT22;21300;52.006;5.798;2023-07-29T07:48:25;19.40;92.30
35127;DHT22;21300;52.006;5.798;2023-07-29T07:50:50;19.40;92.30
35127;DHT22;21300;52.006;5.798;2023-07-29T07:53:16;19.40;92.30
35127;DHT22;21300;52.006;5.798;2023-07-29T07:55:41;19.40;92.30
35127;DHT22;21300;52.006;5.798;2023-07-29T07:58:07;19.50;92.30
35127;DHT22;21300;52.006;5.798;2023-07-29T08:00:33;19.50;92.30
35127;DHT22;21300;52.006;5.798;2023-07-29T08:02:58;19.50;92.30
35127;DHT22;21300;52.006;5.798;2023-07-29T08:05:24;19.50;92.20
35127;DHT22;21300;52.006;5.798;2023-07-29T08:07:49;19.60;92.20
35127;DHT22;21300;52.006;5.798;2023-07-29T08:10:15;19.50;92.20
35127;DHT22;21300;52.006;5.798;2023-07-29T08:12:41;19.60;92.20
35127;DHT22;21300;52.006;5.798;2023-07-29T08:15:06;19.60;92.10
35127;DHT22;21300;52.006;5.798;2023-07-29T08:17:32;19.60;92.10
35127;DHT22;21300;52.006;5.798;2023-07-29T08:19:58;19.60;92.10
35127;DHT22;21300;52.006;5.798;2023-07-29T08:22:23;19.60;92.10
35127;DHT22;21300;52.006;5.798;2023-07-29T08:24:49;19.70;92.10
35127;DHT22;21300;52.006;5.798;2023-07-29T08:27:14;19.70;92.10
35127;DHT22;21300;52.006;5.798;2023-07-29T08:29:40;19.70;92.00
35127;DHT22;21300;52.006;5.798;2023-07-29T08:32:06;19.70;92.00
35127;DHT22;21300;52.006;5.798;2023-07-29T08:34:31;19.70;92.00
35127;DHT22;21300;52.006;5.798;2023-07-29T08:36:57;19.70;92.00
35127;DHT22;21300;52.006;5.798;2023-07-29T08:39:22;19.70;92.00
35127;DHT22;21300;52.006;5.798;2023-07-29T08:42:07;19.70;92.00
35127;DHT22;21300;52.006;5.798;2023-07-29T08:44:41;19.70;91.90
35127;DHT22;21300;52.006;5.798;2023-07-29T08:47:07;19.80;91.90
35127;DHT22;21300;52.006;5.798;2023-07-29T08:49:33;19.80;92.00
35127;DHT22;21300;52.006;5.798;2023-07-29T08:51:59;19.80;91.90
35127;DHT22;21300;52.006;5.798;2023-07-29T08:54:26;19.80;91.90
35127;DHT22;21300;52.006;5.798;2023-07-29T08:56:52;19.80;91.90
35127;DHT22;21300;52.006;5.798;2023-07-29T08:59:19;19.80;91.90
35127;DHT22;21300;52.006;5.798;2023-07-29T09:01:44;19.90;91.90
35127;DHT22;21300;52.006;5.798;2023-07-29T09:04:10;19.80;91.90
35127;DHT22;21300;52.006;5.798;2023-07-29T09:06:36;19.90;91.90
35127;DHT22;21300;52.006;5.798;2023-07-29T09:09:03;19.90;91.90
35127;DHT22;21300;52.006;5.798;2023-07-29T09:11:30;19.90;91.90
35127;DHT22;21300;52.006;5.798;2023-07-29T09:13:55;19.90;91.90
35127;DHT22;21300;52.006;5.798;2023-07-29T09:16:21;19.90;91.90
35127;DHT22;21300;52.006;5.798;2023-07-29T09:18:50;19.90;91.90
35127;DHT22;21300;52.006;5.798;2023-07-29T09:21:23;19.90;91.90
35127;DHT22;21300;52.006;5.798;2023-07-29T09:23:50;19.90;91.90
35127;DHT22;21300;52.006;5.798;2023-07-29T09:26:27;19.90;91.90
35127;DHT22;21300;52.006;5.798;2023-07-29T09:28:54;19.90;91.90
35127;DHT22;21300;52.006;5.798;2023-07-29T09:31:24;20.00;91.90
35127;DHT22;21300;52.006;5.798;2023-07-29T09:33:56;20.00;91.90
35127;DHT22;21300;52.006;5.798;2023-07-29T09:36:23;20.00;91.90
35127;DHT22;21300;52.006;5.798;2023-07-29T09:38:52;20.00;91.80
35127;DHT22;21300;52.006;5.798;2023-07-29T09:41:18;20.00;91.80
35127;DHT22;21300;52.006;5.798;2023-07-29T09:43:43;20.00;91.90
35127;DHT22;21300;52.006;5.798;2023-07-29T09:46:09;20.10;91.90
35127;DHT22;21300;52.006;5.798;2023-07-29T09:48:36;20.10;91.90
35127;DHT22;21300;52.006;5.798;2023-07-29T09:51:12;20.10;91.80
35127;DHT22;21300;52.006;5.798;2023-07-29T09:53:46;20.20;91.80
35127;DHT22;21300;52.006;5.798;2023-07-29T09:56:12;20.20;91.80
35127;DHT22;21300;52.006;5.798;2023-07-29T09:58:38;20.20;91.80
35127;DHT22;21300;52.006;5.798;2023-07-29T10:01:06;20.20;91.70
35127;DHT22;21300;52.006;5.798;2023-07-29T10:03:34;20.20;91.70
35127;DHT22;21300;52.006;5.798;2023-07-29T10:06:01;20.30;91.70
35127;DHT22;21300;52.006;5.798;2023-07-29T10:08:27;20.30;91.60
35127;DHT22;21300;52.006;5.798;2023-07-29T10:10:55;20.40;91.70
35127;DHT22;21300;52.006;5.798;2023-07-29T10:13:20;20.40;91.70
35127;DHT22;21300;52.006;5.798;2023-07-29T10:15:46;20.40;91.60
35127;DHT22;21300;52.006;5.798;2023-07-29T10:18:14;20.40;91.50
35127;DHT22;21300;52.006;5.798;2023-07-29T10:20:42;20.50;91.60
35127;DHT22;21300;52.006;5.798;2023-07-29T10:23:09;20.50;91.60
35127;DHT22;21300;52.006;5.798;2023-07-29T10:25:39;20.50;91.50
35127;DHT22;21300;52.006;5.798;2023-07-29T10:28:08;20.60;91.50
35127;DHT22;21300;52.006;5.798;2023-07-29T10:30:38;20.60;91.50
35127;DHT22;21300;52.006;5.798;2023-07-29T10:33:05;20.70;91.50
35127;DHT22;21300;52.006;5.798;2023-07-29T10:35:34;20.70;91.50
35127;DHT22;21300;52.006;5.798;2023-07-29T10:38:01;20.70;91.40
35127;DHT22;21300;52.006;5.798;2023-07-29T10:40:52;20.80;91.30
35127;DHT22;21300;52.006;5.798;2023-07-29T10:43:35;20.80;91.30
35127;DHT22;21300;52.006;5.798;2023-07-29T10:46:22;20.90;91.30
35127;DHT22;21300;52.006;5.798;2023-07-29T10:48:55;20.90;91.20
35127;DHT22;21300;52.006;5.798;2023-07-29T10:51:37;20.90;91.10
35127;DHT22;21300;52.006;5.798;2023-07-29T10:54:03;21.00;91.10
35127;DHT22;21300;52.006;5.798;2023-07-29T10:56:34;21.00;91.10
35127;DHT22;21300;52.006;5.798;2023-07-29T11:01:52;21.10;91.00
35127;DHT22;21300;52.006;5.798;2023-07-29T11:15:11;21.20;90.80
35127;DHT22;21300;52.006;5.798;2023-07-29T11:20:14;21.20;90.70
35127;DHT22;21300;52.006;5.798;2023-07-29T11:22:41;21.30;90.70
35127;DHT22;21300;52.006;5.798;2023-07-29T11:25:08;21.20;90.60
35127;DHT22;21300;52.006;5.798;2023-07-29T11:27:34;21.30;90.60
35127;DHT22;21300;52.006;5.798;2023-07-29T11:30:01;21.30;90.60
35127;DHT22;21300;52.006;5.798;2023-07-29T11:32:27;21.30;90.60
35127;DHT22;21300;52.006;5.798;2023-07-29T11:34:53;21.40;90.60
35127;DHT22;21300;52.006;5.798;2023-07-29T11:37:19;21.40;90.50
35127;DHT22;21300;52.006;5.798;2023-07-29T11:39:46;21.40;90.50
35127;DHT22;21300;52.006;5.798;2023-07-29T11:42:12;21.40;90.50
35127;DHT22;21300;52.006;5.798;2023-07-29T11:44:38;21.30;90.50
35127;DHT22;21300;52.006;5.798;2023-07-29T11:47:11;21.40;90.50
35127;DHT22;21300;52.006;5.798;2023-07-29T11:49:39;21.40;90.50
35127;DHT22;21300;52.006;5.798;2023-07-29T11:52:09;21.40;90.50
35127;DHT22;21300;52.006;5.798;2023-07-29T11:54:36;21.40;90.50
35127;DHT22;21300;52.006;5.798;2023-07-29T11:57:07;21.40;90.50
35127;DHT22;21300;52.006;5.798;2023-07-29T11:59:34;21.40;90.50
35127;DHT22;21300;52.006;5.798;2023-07-29T12:02:01;21.40;90.60
35127;DHT22;21300;52.006;5.798;2023-07-29T12:04:29;21.40;90.60
35127;DHT22;21300;52.006;5.798;2023-07-29T12:06:55;21.40;90.60
35127;DHT22;21300;52.006;5.798;2023-07-29T12:09:21;21.40;90.60
35127;DHT22;21300;52.006;5.798;2023-07-29T12:11:47;21.40;90.60
35127;DHT22;21300;52.006;5.798;2023-07-29T12:14:13;21.40;90.60
35127;DHT22;21300;52.006;5.798;2023-07-29T12:16:43;21.40;90.60
35127;DHT22;21300;52.006;5.798;2023-07-29T12:19:08;21.40;90.70
35127;DHT22;21300;52.006;5.798;2023-07-29T12:21:34;21.40;90.70
35127;DHT22;21300;52.006;5.798;2023-07-29T12:24:02;21.40;90.70
35127;DHT22;21300;52.006;5.798;2023-07-29T12:26:29;21.40;90.80
35127;DHT22;21300;52.006;5.798;2023-07-29T12:28:55;21.40;90.80
35127;DHT22;21300;52.006;5.798;2023-07-29T12:31:22;21.40;90.80
35127;DHT22;21300;52.006;5.798;2023-07-29T12:33:56;21.40;90.80
35127;DHT22;21300;52.006;5.798;2023-07-29T12:36:22;21.40;90.80
35127;DHT22;21300;52.006;5.798;2023-07-29T12:38:47;21.40;90.80
35127;DHT22;21300;52.006;5.798;2023-07-29T12:41:13;21.40;90.80
35127;DHT22;21300;52.006;5.798;2023-07-29T12:43:39;21.40;90.80
35127;DHT22;21300;52.006;5.798;2023-07-29T12:46:04;21.40;90.80
35127;DHT22;21300;52.006;5.798;2023-07-29T12:48:30;21.40;90.80
35127;DHT22;21300;52.006;5.798;2023-07-29T12:50:55;21.40;90.80
35127;DHT22;21300;52.006;5.798;2023-07-29T12:53:21;21.40;90.90
35127;DHT22;21300;52.006;5.798;2023-07-29T12:55:47;21.40;90.90
35127;DHT22;21300;52.006;5.798;2023-07-29T12:58:12;21.40;90.80
35127;DHT22;21300;52.006;5.798;2023-07-29T13:00:38;21.40;90.80
35127;DHT22;21300;52.006;5.798;2023-07-29T13:03:04;21.40;90.80
35127;DHT22;21300;52.006;5.798;2023-07-29T13:05:31;21.40;90.80
35127;DHT22;21300;52.006;5.798;2023-07-29T13:07:56;21.40;90.80
35127;DHT22;21300;52.006;5.798;2023-07-29T13:10:22;21.40;90.70
35127;DHT22;21300;52.006;5.798;2023-07-29T13:12:47;21.40;90.70
35127;DHT22;21300;52.006;5.798;2023-07-29T13:15:14;21.50;90.80
35127;DHT22;21300;52.006;5.798;2023-07-29T13:17:39;21.50;90.70
35127;DHT22;21300;52.006;5.798;2023-07-29T13:20:06;21.50;90.70
35127;DHT22;21300;52.006;5.798;2023-07-29T13:22:32;21.50;90.70
35127;DHT22;21300;52.006;5.798;2023-07-29T13:24:57;21.50;90.70
35127;DHT22;21300;52.006;5.798;2023-07-29T13:27:23;21.50;90.70
35127;DHT22;21300;52.006;5.798;2023-07-29T13:29:49;21.60;90.70
35127;DHT22;21300;52.006;5.798;2023-07-29T13:32:15;21.60;90.70
35127;DHT22;21300;52.006;5.798;2023-07-29T13:34:40;21.60;90.60
35127;DHT22;21300;52.006;5.798;2023-07-29T13:37:06;21.60;90.60
35127;DHT22;21300;52.006;5.798;2023-07-29T13:39:32;21.60;90.60
35127;DHT22;21300;52.006;5.798;2023-07-29T13:41:57;21.60;90.60
35127;DHT22;21300;52.006;5.798;2023-07-29T13:44:23;21.60;90.60
35127;DHT22;21300;52.006;5.798;2023-07-29T13:46:48;21.60;90.60
35127;DHT22;21300;52.006;5.798;2023-07-29T13:49:14;21.60;90.60
35127;DHT22;21300;52.006;5.798;2023-07-29T13:51:39;21.70;90.60
35127;DHT22;21300;52.006;5.798;2023-07-29T13:54:05;21.60;90.50
35127;DHT22;21300;52.006;5.798;2023-07-29T13:56:31;21.70;90.50
35127;DHT22;21300;52.006;5.798;2023-07-29T13:58:56;21.70;90.60
35127;DHT22;21300;52.006;5.798;2023-07-29T14:01:22;21.70;90.50
35127;DHT22;21300;52.006;5.798;2023-07-29T14:03:47;21.70;90.50
35127;DHT22;21300;52.006;5.798;2023-07-29T14:06:13;21.70;90.50
35127;DHT22;21300;52.006;5.798;2023-07-29T14:08:57;21.70;90.50
35127;DHT22;21300;52.006;5.798;2023-07-29T14:11:23;21.80;90.50
35127;DHT22;21300;52.006;5.798;2023-07-29T14:13:48;21.80;90.50
35127;DHT22;21300;52.006;5.798;2023-07-29T14:16:14;21.80;90.50
35127;DHT22;21300;52.006;5.798;2023-07-29T14:18:40;21.80;90.40
35127;DHT22;21300;52.006;5.798;2023-07-29T14:21:06;21.80;90.40
35127;DHT22;21300;52.006;5.798;2023-07-29T14:23:32;21.80;90.40
35127;DHT22;21300;52.006;5.798;2023-07-29T14:25:58;21.80;90.40
35127;DHT22;21300;52.006;5.798;2023-07-29T14:28:23;21.90;90.40
35127;DHT22;21300;52.006;5.798;2023-07-29T14:30:49;21.90;90.80
35127;DHT22;21300;52.006;5.798;2023-07-29T14:33:14;21.90;90.40
35127;DHT22;21300;52.006;5.798;2023-07-29T14:35:40;21.90;90.40
35127;DHT22;21300;52.006;5.798;2023-07-29T14:38:05;21.90;90.40
35127;DHT22;21300;52.006;5.798;2023-07-29T14:40:31;21.90;90.40
35127;DHT22;21300;52.006;5.798;2023-07-29T14:42:56;21.90;90.30
35127;DHT22;21300;52.006;5.798;2023-07-29T14:45:22;21.90;90.30
35127;DHT22;21300;52.006;5.798;2023-07-29T14:47:48;21.90;90.30
35127;DHT22;21300;52.006;5.798;2023-07-29T14:50:13;21.90;90.30
35127;DHT22;21300;52.006;5.798;2023-07-29T14:52:39;21.90;90.30
35127;DHT22;21300;52.006;5.798;2023-07-29T14:55:05;21.90;90.30
35127;DHT22;21300;52.006;5.798;2023-07-29T14:57:31;22.00;90.40
35127;DHT22;21300;52.006;5.798;2023-07-29T14:59:56;22.00;90.60
35127;DHT22;21300;52.006;5.798;2023-07-29T15:02:22;22.00;90.20
35127;DHT22;21300;52.006;5.798;2023-07-29T15:04:48;22.00;90.20
35127;DHT22;21300;52.006;5.798;2023-07-29T15:07:14;22.00;90.20
35127;DHT22;21300;52.006;5.798;2023-07-29T15:09:40;22.00;90.20
35127;DHT22;21300;52.006;5.798;2023-07-29T15:12:06;22.00;90.20
35127;DHT22;21300;52.006;5.798;2023-07-29T15:14:31;22.00;90.10
35127;DHT22;21300;52.006;5.798;2023-07-29T15:16:57;22.00;90.10
35127;DHT22;21300;52.006;5.798;2023-07-29T15:19:22;22.00;90.10
35127;DHT22;21300;52.006;5.798;2023-07-29T15:21:48;22.10;90.10
35127;DHT22;21300;52.006;5.798;2023-07-29T15:24:14;22.10;90.10
35127;DHT22;21300;52.006;5.798;2023-07-29T15:26:40;22.10;90.10
35127;DHT22;21300;52.006;5.798;2023-07-29T15:29:07;22.10;90.10
35127;DHT22;21300;52.006;5.798;2023-07-29T15:31:34;22.10;90.10
35127;DHT22;21300;52.006;5.798;2023-07-29T15:33:59;22.10;90.00
35127;DHT22;21300;52.006;5.798;2023-07-29T15:36:28;22.10;90.10
35127;DHT22;21300;52.006;5.798;2023-07-29T15:38:53;22.10;90.10
35127;DHT22;21300;52.006;5.798;2023-07-29T15:41:19;22.10;90.00
35127;DHT22;21300;52.006;5.798;2023-07-29T15:43:44;22.10;90.00
35127;DHT22;21300;52.006;5.798;2023-07-29T15:46:10;22.20;89.90
35127;DHT22;21300;52.006;5.798;2023-07-29T15:48:36;22.20;89.90